createdAt,value
2022-12-25T00:00:20.215Z,90.45
2022-12-25T00:02:49.395Z,90.71
2022-12-25T00:05:19.465Z,90.83
2022-12-25T00:07:48.259Z,91.96
2022-12-25T00:10:16.780Z,90.54
2022-12-25T00:12:45.260Z,90.81
2022-12-25T00:15:13.987Z,91.44
2022-12-25T00:17:42.420Z,92.03
2022-12-25T00:20:11.679Z,91.89
2022-12-25T00:22:41.705Z,91.95
2022-12-25T00:25:11.143Z,90.84
2022-12-25T00:27:39.620Z,90.60
2022-12-25T00:30:10.177Z,90.40
2022-12-25T00:32:38.906Z,90.06
2022-12-25T00:35:08.412Z,90.10
2022-12-25T00:37:36.867Z,90.45
2022-12-25T00:40:08.782Z,90.08
2022-12-25T00:42:37.399Z,91.42
2022-12-25T00:45:06.887Z,91.34
2022-12-25T00:47:35.374Z,91.91
2022-12-25T00:50:03.818Z,91.36
2022-12-25T00:52:32.458Z,91.27
2022-12-25T00:55:01.105Z,92.06
2022-12-25T00:57:30.932Z,91.52
2022-12-25T00:59:59.359Z,90.91
2022-12-25T01:02:27.982Z,90.67
2022-12-25T01:04:58.395Z,91.30
2022-12-25T01:07:28.085Z,90.67
2022-12-25T01:10:19.087Z,90.93
2022-12-25T01:12:49.081Z,91.69
2022-12-25T01:15:17.724Z,92.57
2022-12-25T01:17:46.516Z,92.31
2022-12-25T01:20:17.607Z,91.25
2022-12-25T01:22:46.597Z,91.38
2022-12-25T01:25:15.461Z,91.81
2022-12-25T01:27:44.069Z,91.21
2022-12-25T01:30:14.916Z,91.79
2022-12-25T01:32:43.346Z,91.19
2022-12-25T01:35:12.173Z,91.22
2022-12-25T01:37:41.605Z,89.52
2022-12-25T01:40:11.147Z,89.58
2022-12-25T01:42:39.985Z,90.11
2022-12-25T01:45:36.443Z,91.65
2022-12-25T01:48:10.622Z,90.91
2022-12-25T01:50:42.717Z,90.46
2022-12-25T01:53:11.652Z,92.06
2022-12-25T01:55:41.004Z,91.23
2022-12-25T01:58:09.703Z,91.18
2022-12-25T02:00:39.597Z,91.76
2022-12-25T02:03:08.172Z,91.42
2022-12-25T02:05:36.925Z,90.95
2022-12-25T02:08:10.460Z,91.73
2022-12-25T02:10:39.896Z,91.48
2022-12-25T02:13:09.310Z,92.40
2022-12-25T02:15:48.724Z,92.19
2022-12-25T02:18:24.539Z,91.53
2022-12-25T02:21:25.022Z,91.52
2022-12-25T02:24:23.357Z,92.60
2022-12-25T02:27:03.312Z,90.64
2022-12-25T02:29:42.756Z,91.33
2022-12-25T02:32:21.816Z,91.23
2022-12-25T02:34:54.438Z,90.64
2022-12-25T02:37:29.485Z,91.59
2022-12-25T02:40:02.989Z,91.65
2022-12-25T02:43:08.894Z,91.40
2022-12-25T02:46:03.133Z,91.46
2022-12-25T02:48:54.882Z,90.94
2022-12-25T02:51:44.754Z,90.75
2022-12-25T02:54:36.915Z,91.92
2022-12-25T02:57:27.521Z,92.22
2022-12-25T03:00:16.678Z,91.12
2022-12-25T03:03:06.903Z,91.50
2022-12-25T03:05:57.299Z,92.15
2022-12-25T03:08:30.592Z,91.49
2022-12-25T03:11:22.645Z,91.25
2022-12-25T03:13:54.926Z,91.51
2022-12-25T03:16:42.097Z,92.20
2022-12-25T03:19:25.784Z,92.00
2022-12-25T03:22:13.895Z,90.41
2022-12-25T03:24:59.787Z,91.90
2022-12-25T03:27:33.141Z,92.14
2022-12-25T03:30:19.396Z,91.02
2022-12-25T03:32:58.830Z,91.18
2022-12-25T03:35:44.271Z,91.25
2022-12-25T03:38:43.038Z,91.94
2022-12-25T03:41:38.575Z,91.62
2022-12-25T03:44:35.090Z,90.90
2022-12-25T03:47:39.394Z,91.50
2022-12-25T03:50:31.871Z,92.40
2022-12-25T03:53:23.373Z,90.80
2022-12-25T03:56:10.001Z,91.36
2022-12-25T03:58:55.735Z,92.85
2022-12-25T04:01:42.134Z,92.64
2022-12-25T04:04:28.116Z,92.18
2022-12-25T04:07:14.090Z,92.88
2022-12-25T04:10:01.205Z,93.09
2022-12-25T04:12:47.163Z,92.26
2022-12-25T04:15:33.291Z,91.46
2022-12-25T04:18:19.301Z,91.19
2022-12-25T04:21:04.999Z,91.32
2022-12-25T04:23:50.957Z,91.88
2022-12-25T04:26:38.168Z,92.43
2022-12-25T04:29:24.136Z,92.03
2022-12-25T04:32:21.605Z,92.14
2022-12-25T04:35:07.493Z,93.17
2022-12-25T04:37:35.960Z,92.25
2022-12-25T04:40:05.116Z,92.57
2022-12-25T04:42:35.151Z,93.16
2022-12-25T04:45:03.623Z,92.73
2022-12-25T04:47:32.091Z,92.36
2022-12-25T04:50:00.490Z,92.41
2022-12-25T04:52:29.168Z,92.69
2022-12-25T04:54:57.608Z,91.31
2022-12-25T04:57:26.053Z,93.04
2022-12-25T04:59:55.862Z,92.39
2022-12-25T05:02:24.435Z,92.35
2022-12-25T05:04:53.255Z,93.01
2022-12-25T05:07:21.711Z,93.19
2022-12-25T05:09:50.143Z,92.81
2022-12-25T05:12:18.542Z,91.88
2022-12-25T05:14:47.262Z,92.42
2022-12-25T05:17:17.243Z,93.17
2022-12-25T05:19:46.158Z,92.86
2022-12-25T05:22:14.671Z,91.61
2022-12-25T05:24:43.325Z,92.28
2022-12-25T05:27:11.751Z,91.55
2022-12-25T05:29:40.448Z,92.50
2022-12-25T05:32:08.904Z,92.91
2022-12-25T05:34:38.687Z,92.49
2022-12-25T05:37:09.657Z,92.92
2022-12-25T05:39:38.107Z,91.73
2022-12-25T05:42:06.612Z,91.71
2022-12-25T05:44:35.051Z,92.57
2022-12-25T05:47:03.490Z,92.87
2022-12-25T05:49:31.966Z,92.32
2022-12-25T05:52:01.984Z,91.65
2022-12-25T05:54:30.731Z,92.80
2022-12-25T05:56:59.149Z,91.38
2022-12-25T05:59:29.791Z,91.83
2022-12-25T06:01:58.381Z,92.08
2022-12-25T06:04:27.670Z,93.14
2022-12-25T06:06:56.292Z,93.45
2022-12-25T06:09:26.139Z,93.10
2022-12-25T06:11:54.537Z,92.45
2022-12-25T06:14:23.459Z,93.67
2022-12-25T06:16:53.366Z,93.50
2022-12-25T06:19:22.953Z,92.03
2022-12-25T06:21:54.416Z,93.96
2022-12-25T06:24:23.648Z,94.31
2022-12-25T06:26:53.470Z,93.37
2022-12-25T06:29:22.296Z,92.86
2022-12-25T06:31:50.798Z,91.69
2022-12-25T06:34:19.433Z,92.92
2022-12-25T06:36:47.846Z,93.78
2022-12-25T06:39:16.488Z,93.09
2022-12-25T06:41:44.885Z,91.54
2022-12-25T06:44:15.348Z,93.38
2022-12-25T06:46:43.787Z,92.43
2022-12-25T06:49:15.590Z,92.15
2022-12-25T06:51:44.246Z,92.30
2022-12-25T06:54:12.724Z,92.42
2022-12-25T06:56:41.197Z,92.84
2022-12-25T06:59:12.262Z,92.62
2022-12-25T07:01:48.070Z,93.17
2022-12-25T07:04:21.918Z,91.88
2022-12-25T07:06:50.490Z,92.12
2022-12-25T07:09:18.933Z,91.61
2022-12-25T07:11:47.649Z,93.64
2022-12-25T07:14:23.799Z,92.00
2022-12-25T07:16:54.592Z,90.54
2022-12-25T07:19:23.487Z,91.08
2022-12-25T07:21:52.228Z,92.63
2022-12-25T07:24:22.052Z,91.81
2022-12-25T07:26:51.769Z,91.35
2022-12-25T07:29:20.643Z,91.65
2022-12-25T07:31:49.474Z,91.50
2022-12-25T07:34:19.801Z,93.13
2022-12-25T07:36:48.555Z,93.70
2022-12-25T07:39:17.352Z,93.42
2022-12-25T07:41:45.909Z,92.15
2022-12-25T07:44:14.643Z,92.57
2022-12-25T07:46:43.521Z,92.81
2022-12-25T07:49:12.104Z,92.35
2022-12-25T07:51:41.923Z,92.36
2022-12-25T07:54:10.398Z,92.40
2022-12-25T07:56:38.839Z,91.92
2022-12-25T07:59:07.314Z,93.46
2022-12-25T08:01:35.815Z,93.19
2022-12-25T08:04:04.766Z,92.57
2022-12-25T08:06:35.929Z,93.15
2022-12-25T08:09:08.159Z,92.34
2022-12-25T08:11:37.173Z,91.63
2022-12-25T08:14:08.158Z,92.35
2022-12-25T08:16:40.022Z,92.96
2022-12-25T08:19:08.898Z,91.14
2022-12-25T08:21:37.467Z,91.85
2022-12-25T08:24:07.946Z,91.64
2022-12-25T08:26:36.402Z,91.72
2022-12-25T08:29:04.895Z,91.90
2022-12-25T08:31:37.250Z,92.56
2022-12-25T08:34:08.142Z,92.02
2022-12-25T08:36:36.970Z,92.25
2022-12-25T08:39:07.044Z,92.79
2022-12-25T08:41:37.054Z,92.79
2022-12-25T08:44:06.195Z,93.11
2022-12-25T08:46:35.286Z,92.77
2022-12-25T08:49:03.739Z,92.35
2022-12-25T08:51:32.389Z,91.51
2022-12-25T08:54:02.365Z,92.21
2022-12-25T08:56:32.643Z,93.22
2022-12-25T08:59:01.297Z,93.51
2022-12-25T09:01:29.938Z,93.31
2022-12-25T09:03:58.761Z,93.53
2022-12-25T09:06:27.195Z,93.20
2022-12-25T09:08:55.627Z,92.52
2022-12-25T09:11:24.543Z,93.37
2022-12-25T09:13:54.562Z,92.34
2022-12-25T09:16:24.177Z,93.08
2022-12-25T09:18:52.991Z,93.04
2022-12-25T09:21:21.657Z,92.33
2022-12-25T09:23:50.384Z,92.42
2022-12-25T09:26:20.833Z,92.22
2022-12-25T09:28:52.370Z,93.01
2022-12-25T09:31:24.331Z,91.78
2022-12-25T09:33:53.412Z,92.28
2022-12-25T09:36:23.787Z,91.55
2022-12-25T09:38:52.807Z,92.54
2022-12-25T09:41:29.323Z,92.82
2022-12-25T09:44:02.563Z,92.16
2022-12-25T09:46:42.542Z,92.48
2022-12-25T09:49:20.757Z,92.74
2022-12-25T09:51:54.502Z,92.59
2022-12-25T09:54:29.233Z,92.56
2022-12-25T09:56:57.642Z,92.78
2022-12-25T09:59:27.898Z,92.79
2022-12-25T10:02:41.633Z,93.28
2022-12-25T10:05:34.638Z,93.06
2022-12-25T10:08:11.908Z,93.56
2022-12-25T10:10:51.540Z,93.34
2022-12-25T10:13:39.017Z,92.61
2022-12-25T10:16:21.346Z,92.14
2022-12-25T10:19:12.177Z,92.17
2022-12-25T10:21:40.864Z,91.52
2022-12-25T10:24:31.781Z,92.21
2022-12-25T10:27:04.486Z,91.25
2022-12-25T10:29:36.308Z,92.82
2022-12-25T10:32:05.636Z,92.10
2022-12-25T10:34:36.427Z,93.23
2022-12-25T10:37:04.843Z,92.36
2022-12-25T10:39:33.237Z,92.34
2022-12-25T10:42:29.887Z,91.74
2022-12-25T10:45:00.940Z,90.91
2022-12-25T10:47:32.861Z,91.44
2022-12-25T10:50:09.503Z,90.84
2022-12-25T10:52:56.486Z,92.41
2022-12-25T10:55:29.130Z,91.17
2022-12-25T10:57:58.714Z,92.94
2022-12-25T11:00:30.116Z,92.81
2022-12-25T11:02:59.370Z,91.90
2022-12-25T11:05:32.120Z,92.77
2022-12-25T11:08:03.710Z,92.71
2022-12-25T11:10:34.424Z,92.34
2022-12-25T11:13:04.430Z,92.58
2022-12-25T11:15:38.817Z,92.89
2022-12-25T11:18:21.306Z,92.68
2022-12-25T11:20:53.605Z,93.32
2022-12-25T11:23:25.618Z,93.20
2022-12-25T11:25:58.442Z,90.46
2022-12-25T11:28:27.641Z,92.68
2022-12-25T11:31:01.213Z,93.19
2022-12-25T11:33:36.902Z,92.60
2022-12-25T11:36:17.387Z,92.78
2022-12-25T11:38:46.153Z,91.17
2022-12-25T11:41:20.529Z,90.11
2022-12-25T11:43:56.022Z,91.68
2022-12-25T11:46:30.815Z,93.05
2022-12-25T11:49:06.768Z,92.35
2022-12-25T11:51:40.821Z,92.92
2022-12-25T11:54:20.226Z,91.62
2022-12-25T11:56:48.664Z,91.78
2022-12-25T11:59:26.194Z,90.04
2022-12-25T12:02:01.101Z,90.17
2022-12-25T12:04:42.289Z,90.91
2022-12-25T12:07:23.045Z,91.30
2022-12-25T12:09:59.784Z,90.27
2022-12-25T12:12:34.651Z,89.39
2022-12-25T12:15:14.264Z,90.14
2022-12-25T12:17:42.735Z,87.80
2022-12-25T12:20:28.966Z,88.91
2022-12-25T12:22:59.742Z,88.03
2022-12-25T12:25:29.390Z,86.64
2022-12-25T12:28:05.147Z,86.82
2022-12-25T12:30:36.494Z,88.05
2022-12-25T12:33:07.913Z,87.27
2022-12-25T12:35:40.021Z,90.73
2022-12-25T12:38:16.148Z,90.11
2022-12-25T12:40:54.229Z,88.64
2022-12-25T12:43:36.456Z,87.96
2022-12-25T12:46:14.496Z,87.62
2022-12-25T12:48:46.326Z,87.24
2022-12-25T12:51:28.723Z,88.04
2022-12-25T12:54:20.624Z,88.42
2022-12-25T12:57:06.086Z,87.40
2022-12-25T12:59:41.241Z,87.77
2022-12-25T13:02:45.594Z,87.66
2022-12-25T13:05:22.595Z,87.49
2022-12-25T13:08:03.245Z,87.62
2022-12-25T13:10:36.260Z,87.08
2022-12-25T13:13:13.832Z,87.46
2022-12-25T13:15:42.981Z,87.44
2022-12-25T13:18:14.897Z,87.89
2022-12-25T13:20:55.092Z,88.55
2022-12-25T13:23:29.013Z,88.99
2022-12-25T13:26:01.603Z,87.51
2022-12-25T13:28:33.121Z,87.15
2022-12-25T13:31:07.530Z,87.41
2022-12-25T13:33:36.522Z,87.64
2022-12-25T13:36:07.060Z,88.07
2022-12-25T13:38:35.777Z,89.02
2022-12-25T13:41:23.297Z,88.15
2022-12-25T13:43:51.768Z,88.48
2022-12-25T13:46:28.044Z,88.62
2022-12-25T13:49:01.807Z,89.77
2022-12-25T13:51:30.242Z,89.84
2022-12-25T13:54:08.703Z,90.36
2022-12-25T13:56:38.548Z,90.31
2022-12-25T13:59:07.032Z,91.21
2022-12-25T14:01:35.608Z,90.39
2022-12-25T14:04:05.532Z,90.73
2022-12-25T14:06:34.257Z,90.15
2022-12-25T14:09:02.751Z,90.54
2022-12-25T14:11:32.658Z,91.23
2022-12-25T14:14:07.926Z,91.14
2022-12-25T14:16:36.935Z,89.95
2022-12-25T14:19:27.674Z,90.59
2022-12-25T14:22:00.991Z,90.84
2022-12-25T14:24:31.579Z,91.46
2022-12-25T14:27:05.909Z,91.29
2022-12-25T14:29:41.629Z,92.04
2022-12-25T14:32:16.639Z,92.20
2022-12-25T14:34:47.266Z,92.11
2022-12-25T14:37:20.681Z,92.45
2022-12-25T14:39:58.680Z,91.52
2022-12-25T14:42:29.947Z,91.87
2022-12-25T14:45:07.870Z,92.35
2022-12-25T14:47:52.453Z,91.78
2022-12-25T14:50:29.011Z,91.60
2022-12-25T14:52:59.142Z,91.07
2022-12-25T14:55:30.210Z,90.87
2022-12-25T14:58:04.679Z,92.03
2022-12-25T15:00:36.985Z,90.98
2022-12-25T15:03:08.779Z,91.38
2022-12-25T15:05:40.020Z,91.30
2022-12-25T15:08:24.251Z,91.90
2022-12-25T15:11:02.142Z,92.24
2022-12-25T15:13:32.501Z,92.35
2022-12-25T15:16:07.845Z,92.70
2022-12-25T15:18:39.902Z,93.58
2022-12-25T15:21:13.975Z,93.37
2022-12-25T15:23:42.424Z,91.17
2022-12-25T15:26:16.407Z,92.90
2022-12-25T15:28:44.909Z,91.65
2022-12-25T15:31:23.442Z,93.22
2022-12-25T15:33:52.320Z,93.35
2022-12-25T15:36:20.791Z,92.05
2022-12-25T15:38:49.397Z,92.21
2022-12-25T15:41:35.683Z,93.35
2022-12-25T15:44:04.961Z,91.42
2022-12-25T15:46:35.968Z,91.67
2022-12-25T15:49:05.144Z,91.52
2022-12-25T15:51:34.059Z,91.70
2022-12-25T15:54:02.699Z,92.06
2022-12-25T15:56:32.392Z,91.63
2022-12-25T15:59:00.861Z,91.66
2022-12-25T16:01:29.432Z,90.32
2022-12-25T16:03:59.522Z,90.77
2022-12-25T16:06:27.944Z,85.36
2022-12-25T16:08:56.600Z,82.97
2022-12-25T16:11:27.621Z,75.20
2022-12-25T16:13:56.247Z,77.68
2022-12-25T16:16:24.802Z,84.19
2022-12-25T16:18:53.259Z,84.60
2022-12-25T16:21:24.380Z,86.02
2022-12-25T16:23:52.832Z,80.04
2022-12-25T16:26:21.792Z,80.01
2022-12-25T16:28:50.465Z,82.22
2022-12-25T16:31:28.217Z,81.58
2022-12-25T16:33:56.879Z,83.22
2022-12-25T16:36:29.684Z,85.58
2022-12-25T16:38:58.357Z,82.91
2022-12-25T16:41:29.563Z,83.92
2022-12-25T16:43:58.221Z,80.53
2022-12-25T16:46:26.863Z,76.69
2022-12-25T16:48:56.953Z,81.41
2022-12-25T16:51:26.661Z,82.37
2022-12-25T16:53:56.856Z,81.25
2022-12-25T16:56:28.369Z,83.48
2022-12-25T16:58:59.027Z,77.61
2022-12-25T17:01:27.624Z,80.00
2022-12-25T17:04:01.727Z,76.76
2022-12-25T17:06:30.717Z,81.57
2022-12-25T17:09:02.608Z,78.69
2022-12-25T17:11:31.862Z,76.50
2022-12-25T17:14:03.404Z,76.24
2022-12-25T17:16:35.579Z,77.18
2022-12-25T17:19:08.102Z,76.92
2022-12-25T17:21:38.308Z,78.33
2022-12-25T17:24:08.945Z,77.29
2022-12-25T17:26:37.492Z,77.66
2022-12-25T17:29:06.205Z,74.68
2022-12-25T17:31:35.514Z,75.86
2022-12-25T17:34:05.108Z,76.08
2022-12-25T17:36:34.023Z,76.87
2022-12-25T17:39:03.460Z,76.67
2022-12-25T17:41:33.504Z,75.71
2022-12-25T17:44:01.944Z,77.14
2022-12-25T17:46:32.214Z,78.05
2022-12-25T17:49:01.998Z,77.77
2022-12-25T17:51:32.287Z,76.65
2022-12-25T17:54:04.100Z,78.07
2022-12-25T17:56:34.720Z,76.10
2022-12-25T17:59:06.992Z,75.55
2022-12-25T18:01:38.464Z,77.71
2022-12-25T18:04:08.316Z,78.51
2022-12-25T18:06:37.999Z,77.22
2022-12-25T18:09:08.192Z,77.24
2022-12-25T18:11:41.279Z,74.51
2022-12-25T18:14:13.735Z,79.18
2022-12-25T18:16:44.629Z,77.58
2022-12-25T18:19:14.019Z,74.36
2022-12-25T18:21:42.878Z,74.20
2022-12-25T18:24:11.743Z,75.79
2022-12-25T18:26:41.546Z,77.67
2022-12-25T18:29:09.961Z,80.22
2022-12-25T18:31:38.469Z,78.56
2022-12-25T18:34:06.914Z,80.75
2022-12-25T18:36:35.432Z,76.77
2022-12-25T18:39:04.662Z,77.07
2022-12-25T18:41:53.213Z,81.23
2022-12-25T18:44:23.039Z,81.17
2022-12-25T18:46:51.458Z,82.27
2022-12-25T18:49:20.186Z,80.29
2022-12-25T18:51:50.416Z,79.16
2022-12-25T18:54:19.351Z,82.58
2022-12-25T18:56:53.370Z,81.38
2022-12-25T18:59:23.808Z,83.13
2022-12-25T19:01:52.920Z,82.98
2022-12-25T19:04:21.553Z,81.85
2022-12-25T19:06:50.409Z,82.94
2022-12-25T19:09:18.912Z,82.57
2022-12-25T19:11:50.415Z,84.29
2022-12-25T19:14:18.929Z,86.22
2022-12-25T19:16:48.840Z,81.81
2022-12-25T19:19:17.265Z,78.62
2022-12-25T19:21:47.766Z,77.14
2022-12-25T19:24:16.409Z,76.96
2022-12-25T19:26:44.851Z,76.86
2022-12-25T19:29:13.584Z,79.81
2022-12-25T19:31:43.028Z,82.31
2022-12-25T19:34:13.143Z,78.12
2022-12-25T19:36:41.888Z,75.69
2022-12-25T19:39:12.523Z,77.68
2022-12-25T19:41:41.213Z,78.01
2022-12-25T19:44:09.831Z,78.19
2022-12-25T19:46:40.955Z,76.78
2022-12-25T19:49:14.769Z,75.99
2022-12-25T19:51:46.215Z,76.73
2022-12-25T19:54:16.768Z,76.07
2022-12-25T19:56:45.209Z,78.90
2022-12-25T19:59:14.777Z,79.02
2022-12-25T20:01:43.815Z,79.26
2022-12-25T20:04:13.962Z,82.13
2022-12-25T20:06:43.536Z,83.56
2022-12-25T20:09:15.576Z,82.21
2022-12-25T20:11:44.355Z,84.68
2022-12-25T20:14:16.396Z,84.53
2022-12-25T20:16:46.240Z,82.02
2022-12-25T20:19:16.875Z,84.62
2022-12-25T20:21:45.880Z,81.62
2022-12-25T20:24:14.323Z,83.33
2022-12-25T20:26:47.510Z,83.86
2022-12-25T20:29:16.280Z,86.32
2022-12-25T20:31:44.763Z,84.60
2022-12-25T20:34:15.081Z,84.91
2022-12-25T20:36:45.336Z,83.94
2022-12-25T20:39:14.504Z,85.46
2022-12-25T20:41:43.062Z,83.58
2022-12-25T20:44:13.242Z,84.69
2022-12-25T20:46:41.944Z,84.35
2022-12-25T20:49:10.781Z,84.54
2022-12-25T20:51:41.624Z,86.28
2022-12-25T20:54:12.744Z,85.38
2022-12-25T20:56:41.748Z,87.31
2022-12-25T20:59:11.839Z,85.70
2022-12-25T21:01:40.635Z,85.46
2022-12-25T21:04:14.462Z,86.76
2022-12-25T21:06:46.121Z,88.17
2022-12-25T21:09:14.628Z,87.15
2022-12-25T21:11:43.346Z,88.05
2022-12-25T21:14:12.159Z,85.93
2022-12-25T21:16:40.628Z,88.60
2022-12-25T21:19:09.561Z,88.43
2022-12-25T21:21:42.634Z,87.17
2022-12-25T21:24:12.626Z,87.45
2022-12-25T21:26:47.619Z,87.66
2022-12-25T21:29:17.021Z,88.77
2022-12-25T21:32:02.901Z,87.69
2022-12-25T21:34:34.216Z,89.66
2022-12-25T21:37:02.656Z,88.04
2022-12-25T21:39:32.517Z,87.46
2022-12-25T21:42:01.138Z,89.22
2022-12-25T21:44:29.524Z,87.45
2022-12-25T21:46:58.411Z,88.63
2022-12-25T21:49:44.098Z,90.42
2022-12-25T21:52:12.762Z,88.70
2022-12-25T21:54:42.685Z,89.20
2022-12-25T21:57:11.100Z,90.63
2022-12-25T21:59:39.797Z,89.21
2022-12-25T22:02:11.428Z,89.48
2022-12-25T22:04:40.423Z,88.30
2022-12-25T22:07:17.889Z,90.07
2022-12-25T22:09:49.620Z,89.83
2022-12-25T22:12:37.445Z,89.96
2022-12-25T22:15:09.533Z,90.42
2022-12-25T22:17:58.200Z,89.40
2022-12-25T22:20:30.166Z,90.12
2022-12-25T22:22:59.459Z,89.06
2022-12-25T22:25:29.304Z,89.71
2022-12-25T22:27:58.690Z,89.54
2022-12-25T22:30:29.519Z,90.15
2022-12-25T22:32:58.306Z,88.89
2022-12-25T22:35:26.986Z,89.49
2022-12-25T22:37:55.933Z,88.67
2022-12-25T22:40:24.356Z,89.38
2022-12-25T22:42:57.098Z,89.23
2022-12-25T22:45:25.809Z,91.28
2022-12-25T22:47:54.469Z,90.96
2022-12-25T22:50:23.372Z,89.97
2022-12-25T22:52:51.774Z,87.99
2022-12-25T22:55:20.761Z,87.69
2022-12-25T22:57:50.614Z,88.85
2022-12-25T23:00:20.694Z,89.70
2022-12-25T23:02:49.524Z,86.68
2022-12-25T23:05:18.477Z,87.80
2022-12-25T23:07:47.441Z,87.79
2022-12-25T23:10:15.871Z,83.99
2022-12-25T23:13:01.627Z,84.83
2022-12-25T23:15:32.544Z,85.85
2022-12-25T23:18:18.289Z,86.78
2022-12-25T23:21:04.102Z,87.18
2022-12-25T23:23:49.992Z,86.65
2022-12-25T23:26:20.121Z,82.25
2022-12-25T23:29:05.979Z,83.89
2022-12-25T23:31:39.875Z,86.12
2022-12-25T23:34:09.868Z,85.54
2022-12-25T23:36:38.542Z,86.30
2022-12-25T23:39:10.011Z,86.79
2022-12-25T23:41:39.695Z,85.28
2022-12-25T23:44:08.448Z,85.00
2022-12-25T23:46:39.108Z,85.47
2022-12-25T23:49:08.398Z,84.71
2022-12-25T23:51:37.398Z,81.19
2022-12-25T23:54:06.602Z,80.84
2022-12-25T23:56:35.371Z,81.49
2022-12-25T23:59:03.882Z,83.62
